sensor_id;sensor_type;location;lat;lon;timestamp;P1;durP1;ratioP1;P2;durP2;ratioP2
757;SDS011;363;48.764;9.172;2022-07-24T00:01:39;14.03;;;12.83;;
757;SDS011;363;48.764;9.172;2022-07-24T00:04:05;14.20;;;13.00;;
757;SDS011;363;48.764;9.172;2022-07-24T00:06:32;14.30;;;13.13;;
757;SDS011;363;48.764;9.172;2022-07-24T00:08:58;13.83;;;12.73;;
757;SDS011;363;48.764;9.172;2022-07-24T00:11:24;14.50;;;13.20;;
757;SDS011;363;48.764;9.172;2022-07-24T00:13:49;15.07;;;13.80;;
757;SDS011;363;48.764;9.172;2022-07-24T00:16:15;14.00;;;12.80;;
757;SDS011;363;48.764;9.172;2022-07-24T00:18:41;13.53;;;12.43;;
757;SDS011;363;48.764;9.172;2022-07-24T00:21:06;13.47;;;12.27;;
757;SDS011;363;48.764;9.172;2022-07-24T00:23:32;14.70;;;13.40;;
757;SDS011;363;48.764;9.172;2022-07-24T00:25:58;14.27;;;13.07;;
757;SDS011;363;48.764;9.172;2022-07-24T00:28:23;13.30;;;12.20;;
757;SDS011;363;48.764;9.172;2022-07-24T00:30:49;13.97;;;12.73;;
757;SDS011;363;48.764;9.172;2022-07-24T00:33:15;12.87;;;11.77;;
757;SDS011;363;48.764;9.172;2022-07-24T00:35:41;13.43;;;12.33;;
757;SDS011;363;48.764;9.172;2022-07-24T00:38:07;14.27;;;12.97;;
757;SDS011;363;48.764;9.172;2022-07-24T00:40:32;14.07;;;12.87;;
757;SDS011;363;48.764;9.172;2022-07-24T00:42:58;13.37;;;12.37;;
757;SDS011;363;48.764;9.172;2022-07-24T00:45:24;13.67;;;12.57;;
757;SDS011;363;48.764;9.172;2022-07-24T00:47:50;13.80;;;12.67;;
757;SDS011;363;48.764;9.172;2022-07-24T00:50:16;14.27;;;13.07;;
757;SDS011;363;48.764;9.172;2022-07-24T00:52:42;14.40;;;13.10;;
757;SDS011;363;48.764;9.172;2022-07-24T00:55:10;12.33;;;11.40;;
757;SDS011;363;48.764;9.172;2022-07-24T00:57:36;13.90;;;12.60;;
757;SDS011;363;48.764;9.172;2022-07-24T01:00:03;13.53;;;12.43;;
757;SDS011;363;48.764;9.172;2022-07-24T01:02:31;14.82;;;13.52;;
757;SDS011;363;48.764;9.172;2022-07-24T01:04:57;14.20;;;13.00;;
757;SDS011;363;48.764;9.172;2022-07-24T01:07:22;14.30;;;13.10;;
757;SDS011;363;48.764;9.172;2022-07-24T01:09:48;13.70;;;12.50;;
757;SDS011;363;48.764;9.172;2022-07-24T01:12:14;13.37;;;12.27;;
757;SDS011;363;48.764;9.172;2022-07-24T01:14:40;13.87;;;12.67;;
757;SDS011;363;48.764;9.172;2022-07-24T01:17:06;12.97;;;11.93;;
757;SDS011;363;48.764;9.172;2022-07-24T01:19:31;13.70;;;12.50;;
757;SDS011;363;48.764;9.172;2022-07-24T01:21:57;13.73;;;12.47;;
757;SDS011;363;48.764;9.172;2022-07-24T01:24:22;13.47;;;12.37;;
757;SDS011;363;48.764;9.172;2022-07-24T01:26:48;12.73;;;11.70;;
757;SDS011;363;48.764;9.172;2022-07-24T01:29:14;12.60;;;11.50;;
757;SDS011;363;48.764;9.172;2022-07-24T01:31:40;12.55;;;11.55;;
757;SDS011;363;48.764;9.172;2022-07-24T01:34:06;12.60;;;11.37;;
757;SDS011;363;48.764;9.172;2022-07-24T01:36:31;12.63;;;11.63;;
757;SDS011;363;48.764;9.172;2022-07-24T01:38:57;12.93;;;11.73;;
757;SDS011;363;48.764;9.172;2022-07-24T01:41:23;12.23;;;11.33;;
757;SDS011;363;48.764;9.172;2022-07-24T01:43:48;12.60;;;11.60;;
757;SDS011;363;48.764;9.172;2022-07-24T01:46:14;12.50;;;11.50;;
757;SDS011;363;48.764;9.172;2022-07-24T01:48:41;13.40;;;12.40;;
757;SDS011;363;48.764;9.172;2022-07-24T01:51:08;13.37;;;12.17;;
757;SDS011;363;48.764;9.172;2022-07-24T01:53:34;13.40;;;12.27;;
757;SDS011;363;48.764;9.172;2022-07-24T01:56:00;12.20;;;11.23;;
757;SDS011;363;48.764;9.172;2022-07-24T01:58:26;12.48;;;11.48;;
757;SDS011;363;48.764;9.172;2022-07-24T02:00:52;12.13;;;11.13;;
757;SDS011;363;48.764;9.172;2022-07-24T02:03:18;12.53;;;11.50;;
757;SDS011;363;48.764;9.172;2022-07-24T02:05:44;12.70;;;11.70;;
757;SDS011;363;48.764;9.172;2022-07-24T02:08:10;14.00;;;10.90;;
757;SDS011;363;48.764;9.172;2022-07-24T02:10:36;11.90;;;11.00;;
757;SDS011;363;48.764;9.172;2022-07-24T02:13:02;13.17;;;12.10;;
757;SDS011;363;48.764;9.172;2022-07-24T02:15:27;12.07;;;11.07;;
757;SDS011;363;48.764;9.172;2022-07-24T02:17:55;12.23;;;11.33;;
757;SDS011;363;48.764;9.172;2022-07-24T02:20:21;12.90;;;11.90;;
757;SDS011;363;48.764;9.172;2022-07-24T02:22:47;13.87;;;12.57;;
757;SDS011;363;48.764;9.172;2022-07-24T02:25:13;12.50;;;11.40;;
757;SDS011;363;48.764;9.172;2022-07-24T02:27:39;12.47;;;11.10;;
757;SDS011;363;48.764;9.172;2022-07-24T02:30:06;11.20;;;10.40;;
757;SDS011;363;48.764;9.172;2022-07-24T02:32:34;12.18;;;11.18;;
757;SDS011;363;48.764;9.172;2022-07-24T02:34:59;11.60;;;10.70;;
757;SDS011;363;48.764;9.172;2022-07-24T02:37:25;11.87;;;10.73;;
757;SDS011;363;48.764;9.172;2022-07-24T02:39:51;11.80;;;10.90;;
757;SDS011;363;48.764;9.172;2022-07-24T02:42:16;12.00;;;10.90;;
757;SDS011;363;48.764;9.172;2022-07-24T02:44:42;11.80;;;10.73;;
757;SDS011;363;48.764;9.172;2022-07-24T02:47:07;12.03;;;11.13;;
757;SDS011;363;48.764;9.172;2022-07-24T02:49:33;13.33;;;12.03;;
757;SDS011;363;48.764;9.172;2022-07-24T02:51:58;11.60;;;10.63;;
757;SDS011;363;48.764;9.172;2022-07-24T02:54:24;11.63;;;10.73;;
757;SDS011;363;48.764;9.172;2022-07-24T02:56:50;12.90;;;11.80;;
757;SDS011;363;48.764;9.172;2022-07-24T02:59:15;11.40;;;10.50;;
757;SDS011;363;48.764;9.172;2022-07-24T03:01:41;11.67;;;10.77;;
757;SDS011;363;48.764;9.172;2022-07-24T03:04:06;11.27;;;10.37;;
757;SDS011;363;48.764;9.172;2022-07-24T03:06:32;12.13;;;11.07;;
757;SDS011;363;48.764;9.172;2022-07-24T03:08:58;11.20;;;10.20;;
757;SDS011;363;48.764;9.172;2022-07-24T03:11:23;11.70;;;10.80;;
757;SDS011;363;48.764;9.172;2022-07-24T03:13:49;12.40;;;11.40;;
757;SDS011;363;48.764;9.172;2022-07-24T03:16:14;12.00;;;10.70;;
757;SDS011;363;48.764;9.172;2022-07-24T03:18:41;11.82;;;10.82;;
757;SDS011;363;48.764;9.172;2022-07-24T03:21:10;11.65;;;10.63;;
757;SDS011;363;48.764;9.172;2022-07-24T03:23:38;12.50;;;11.40;;
757;SDS011;363;48.764;9.172;2022-07-24T03:26:04;11.90;;;10.90;;
757;SDS011;363;48.764;9.172;2022-07-24T03:28:29;12.37;;;11.33;;
757;SDS011;363;48.764;9.172;2022-07-24T03:30:55;11.93;;;10.90;;
757;SDS011;363;48.764;9.172;2022-07-24T03:33:21;12.60;;;11.50;;
757;SDS011;363;48.764;9.172;2022-07-24T03:35:46;12.17;;;11.07;;
757;SDS011;363;48.764;9.172;2022-07-24T03:38:12;13.10;;;12.00;;
757;SDS011;363;48.764;9.172;2022-07-24T03:40:37;12.83;;;11.57;;
757;SDS011;363;48.764;9.172;2022-07-24T03:43:03;12.00;;;11.00;;
757;SDS011;363;48.764;9.172;2022-07-24T03:45:28;11.07;;;10.07;;
757;SDS011;363;48.764;9.172;2022-07-24T03:47:54;11.93;;;11.03;;
757;SDS011;363;48.764;9.172;2022-07-24T03:50:20;11.73;;;10.73;;
757;SDS011;363;48.764;9.172;2022-07-24T03:52:45;12.20;;;11.20;;
757;SDS011;363;48.764;9.172;2022-07-24T03:55:11;11.60;;;10.70;;
757;SDS011;363;48.764;9.172;2022-07-24T03:57:36;12.30;;;11.27;;
757;SDS011;363;48.764;9.172;2022-07-24T04:00:03;11.57;;;10.70;;
757;SDS011;363;48.764;9.172;2022-07-24T04:02:30;11.77;;;10.77;;
757;SDS011;363;48.764;9.172;2022-07-24T04:04:56;14.43;;;11.87;;
757;SDS011;363;48.764;9.172;2022-07-24T04:07:21;12.47;;;11.37;;
757;SDS011;363;48.764;9.172;2022-07-24T04:09:47;11.40;;;10.47;;
757;SDS011;363;48.764;9.172;2022-07-24T04:12:12;12.27;;;11.37;;
757;SDS011;363;48.764;9.172;2022-07-24T04:14:38;12.40;;;11.40;;
757;SDS011;363;48.764;9.172;2022-07-24T04:17:04;13.50;;;12.20;;
757;SDS011;363;48.764;9.172;2022-07-24T04:19:29;13.53;;;12.23;;
757;SDS011;363;48.764;9.172;2022-07-24T04:21:55;11.20;;;10.30;;
757;SDS011;363;48.764;9.172;2022-07-24T04:24:20;13.20;;;12.00;;
757;SDS011;363;48.764;9.172;2022-07-24T04:26:46;12.50;;;11.33;;
757;SDS011;363;48.764;9.172;2022-07-24T04:29:11;11.50;;;10.53;;
757;SDS011;363;48.764;9.172;2022-07-24T04:31:37;12.27;;;11.07;;
757;SDS011;363;48.764;9.172;2022-07-24T04:34:03;12.67;;;10.80;;
757;SDS011;363;48.764;9.172;2022-07-24T04:36:28;13.00;;;11.90;;
757;SDS011;363;48.764;9.172;2022-07-24T04:38:54;13.30;;;12.17;;
757;SDS011;363;48.764;9.172;2022-07-24T04:41:19;12.50;;;11.23;;
757;SDS011;363;48.764;9.172;2022-07-24T04:43:45;13.07;;;11.97;;
757;SDS011;363;48.764;9.172;2022-07-24T04:46:11;12.67;;;11.50;;
757;SDS011;363;48.764;9.172;2022-07-24T04:48:36;12.30;;;11.20;;
757;SDS011;363;48.764;9.172;2022-07-24T04:51:02;11.37;;;10.47;;
757;SDS011;363;48.764;9.172;2022-07-24T04:53:28;11.17;;;10.13;;
757;SDS011;363;48.764;9.172;2022-07-24T04:55:55;11.63;;;10.68;;
757;SDS011;363;48.764;9.172;2022-07-24T04:58:21;10.90;;;10.00;;
757;SDS011;363;48.764;9.172;2022-07-24T05:00:47;11.40;;;10.50;;
757;SDS011;363;48.764;9.172;2022-07-24T05:03:12;12.07;;;10.97;;
757;SDS011;363;48.764;9.172;2022-07-24T05:05:38;11.53;;;10.53;;
757;SDS011;363;48.764;9.172;2022-07-24T05:08:04;11.47;;;10.57;;
757;SDS011;363;48.764;9.172;2022-07-24T05:10:29;12.67;;;11.47;;
757;SDS011;363;48.764;9.172;2022-07-24T05:12:55;11.57;;;10.60;;
757;SDS011;363;48.764;9.172;2022-07-24T05:15:20;10.03;;;9.23;;
757;SDS011;363;48.764;9.172;2022-07-24T05:17:46;11.80;;;10.83;;
757;SDS011;363;48.764;9.172;2022-07-24T05:20:12;12.18;;;11.18;;
757;SDS011;363;48.764;9.172;2022-07-24T05:22:38;12.50;;;11.40;;
757;SDS011;363;48.764;9.172;2022-07-24T05:25:04;11.40;;;10.50;;
757;SDS011;363;48.764;9.172;2022-07-24T05:27:30;11.95;;;10.82;;
757;SDS011;363;48.764;9.172;2022-07-24T05:29:56;12.40;;;11.27;;
757;SDS011;363;48.764;9.172;2022-07-24T05:32:21;10.97;;;10.03;;
757;SDS011;363;48.764;9.172;2022-07-24T05:34:47;11.67;;;10.57;;
757;SDS011;363;48.764;9.172;2022-07-24T05:37:12;11.67;;;10.50;;
757;SDS011;363;48.764;9.172;2022-07-24T05:39:38;12.93;;;11.83;;
757;SDS011;363;48.764;9.172;2022-07-24T05:42:04;12.17;;;11.10;;
757;SDS011;363;48.764;9.172;2022-07-24T05:44:29;12.10;;;11.00;;
757;SDS011;363;48.764;9.172;2022-07-24T05:46:55;12.10;;;11.10;;
757;SDS011;363;48.764;9.172;2022-07-24T05:49:20;12.03;;;11.03;;
757;SDS011;363;48.764;9.172;2022-07-24T05:51:46;11.57;;;10.57;;
757;SDS011;363;48.764;9.172;2022-07-24T05:54:12;12.27;;;11.27;;
757;SDS011;363;48.764;9.172;2022-07-24T05:56:37;10.90;;;10.00;;
757;SDS011;363;48.764;9.172;2022-07-24T05:59:03;11.80;;;10.80;;
757;SDS011;363;48.764;9.172;2022-07-24T06:01:28;11.80;;;10.73;;
757;SDS011;363;48.764;9.172;2022-07-24T06:03:54;11.67;;;10.77;;
757;SDS011;363;48.764;9.172;2022-07-24T06:06:19;11.37;;;10.47;;
757;SDS011;363;48.764;9.172;2022-07-24T06:08:45;11.77;;;10.77;;
757;SDS011;363;48.764;9.172;2022-07-24T06:11:11;11.83;;;10.70;;
757;SDS011;363;48.764;9.172;2022-07-24T06:13:37;10.27;;;9.43;;
757;SDS011;363;48.764;9.172;2022-07-24T06:16:02;12.13;;;10.93;;
757;SDS011;363;48.764;9.172;2022-07-24T06:18:28;11.13;;;10.13;;
757;SDS011;363;48.764;9.172;2022-07-24T06:20:54;10.50;;;9.50;;
757;SDS011;363;48.764;9.172;2022-07-24T06:23:20;9.93;;;9.23;;
757;SDS011;363;48.764;9.172;2022-07-24T06:25:45;11.13;;;10.13;;
757;SDS011;363;48.764;9.172;2022-07-24T06:28:11;11.63;;;10.53;;
757;SDS011;363;48.764;9.172;2022-07-24T06:30:36;10.93;;;10.07;;
757;SDS011;363;48.764;9.172;2022-07-24T06:33:02;10.63;;;9.73;;
757;SDS011;363;48.764;9.172;2022-07-24T06:35:28;10.67;;;9.77;;
757;SDS011;363;48.764;9.172;2022-07-24T06:37:57;10.13;;;9.33;;
757;SDS011;363;48.764;9.172;2022-07-24T06:40:23;15.80;;;11.60;;
757;SDS011;363;48.764;9.172;2022-07-24T06:42:48;10.37;;;9.57;;
757;SDS011;363;48.764;9.172;2022-07-24T06:45:14;11.30;;;10.50;;
757;SDS011;363;48.764;9.172;2022-07-24T06:47:41;10.77;;;9.87;;
757;SDS011;363;48.764;9.172;2022-07-24T06:50:10;10.73;;;9.93;;
757;SDS011;363;48.764;9.172;2022-07-24T06:52:43;11.07;;;10.17;;
757;SDS011;363;48.764;9.172;2022-07-24T06:55:12;10.97;;;10.17;;
757;SDS011;363;48.764;9.172;2022-07-24T06:57:37;10.73;;;9.83;;
757;SDS011;363;48.764;9.172;2022-07-24T07:00:04;10.83;;;9.83;;
757;SDS011;363;48.764;9.172;2022-07-24T07:02:33;10.07;;;9.07;;
757;SDS011;363;48.764;9.172;2022-07-24T07:04:58;10.37;;;9.47;;
757;SDS011;363;48.764;9.172;2022-07-24T07:07:24;10.30;;;9.40;;
757;SDS011;363;48.764;9.172;2022-07-24T07:09:49;9.50;;;8.80;;
757;SDS011;363;48.764;9.172;2022-07-24T07:12:15;10.00;;;9.10;;
757;SDS011;363;48.764;9.172;2022-07-24T07:14:41;9.77;;;9.07;;
757;SDS011;363;48.764;9.172;2022-07-24T07:17:06;10.40;;;9.57;;
757;SDS011;363;48.764;9.172;2022-07-24T07:19:32;10.60;;;9.80;;
757;SDS011;363;48.764;9.172;2022-07-24T07:21:57;10.20;;;9.40;;
757;SDS011;363;48.764;9.172;2022-07-24T07:24:23;11.43;;;10.63;;
757;SDS011;363;48.764;9.172;2022-07-24T07:26:49;11.50;;;10.73;;
757;SDS011;363;48.764;9.172;2022-07-24T07:29:14;12.27;;;11.37;;
757;SDS011;363;48.764;9.172;2022-07-24T07:31:40;11.20;;;10.30;;
757;SDS011;363;48.764;9.172;2022-07-24T07:34:05;11.90;;;11.10;;
757;SDS011;363;48.764;9.172;2022-07-24T07:36:31;11.87;;;11.17;;
757;SDS011;363;48.764;9.172;2022-07-24T07:38:56;12.87;;;12.00;;
757;SDS011;363;48.764;9.172;2022-07-24T07:41:22;11.90;;;11.00;;
757;SDS011;363;48.764;9.172;2022-07-24T07:43:49;13.00;;;11.93;;
757;SDS011;363;48.764;9.172;2022-07-24T07:46:14;11.90;;;11.10;;
757;SDS011;363;48.764;9.172;2022-07-24T07:48:40;11.17;;;10.43;;
757;SDS011;363;48.764;9.172;2022-07-24T07:51:07;11.93;;;11.03;;
757;SDS011;363;48.764;9.172;2022-07-24T07:53:32;12.27;;;11.57;;
757;SDS011;363;48.764;9.172;2022-07-24T07:55:58;12.50;;;11.60;;
757;SDS011;363;48.764;9.172;2022-07-24T07:58:23;12.37;;;11.57;;
757;SDS011;363;48.764;9.172;2022-07-24T08:00:51;11.30;;;10.40;;
757;SDS011;363;48.764;9.172;2022-07-24T08:03:17;11.33;;;10.63;;
757;SDS011;363;48.764;9.172;2022-07-24T08:05:42;10.90;;;10.00;;
757;SDS011;363;48.764;9.172;2022-07-24T08:08:08;11.67;;;10.87;;
757;SDS011;363;48.764;9.172;2022-07-24T08:10:34;10.80;;;9.93;;
757;SDS011;363;48.764;9.172;2022-07-24T08:12:59;10.33;;;9.37;;
757;SDS011;363;48.764;9.172;2022-07-24T08:15:25;12.00;;;11.10;;
757;SDS011;363;48.764;9.172;2022-07-24T08:17:54;10.67;;;9.87;;
757;SDS011;363;48.764;9.172;2022-07-24T08:20:22;10.23;;;9.53;;
757;SDS011;363;48.764;9.172;2022-07-24T08:22:48;9.93;;;9.33;;
757;SDS011;363;48.764;9.172;2022-07-24T08:25:14;10.83;;;10.00;;
757;SDS011;363;48.764;9.172;2022-07-24T08:27:39;10.70;;;9.93;;
757;SDS011;363;48.764;9.172;2022-07-24T08:30:05;10.40;;;9.50;;
757;SDS011;363;48.764;9.172;2022-07-24T08:32:32;9.70;;;9.00;;
757;SDS011;363;48.764;9.172;2022-07-24T08:34:58;9.20;;;8.60;;
757;SDS011;363;48.764;9.172;2022-07-24T08:37:24;10.23;;;9.53;;
757;SDS011;363;48.764;9.172;2022-07-24T08:39:49;8.80;;;8.30;;
757;SDS011;363;48.764;9.172;2022-07-24T08:42:15;9.00;;;8.30;;
757;SDS011;363;48.764;9.172;2022-07-24T08:44:40;9.60;;;8.90;;
757;SDS011;363;48.764;9.172;2022-07-24T08:47:06;14.23;;;13.07;;
757;SDS011;363;48.764;9.172;2022-07-24T08:49:35;9.50;;;8.90;;
757;SDS011;363;48.764;9.172;2022-07-24T08:52:02;9.70;;;9.07;;
757;SDS011;363;48.764;9.172;2022-07-24T08:54:29;9.30;;;8.60;;
757;SDS011;363;48.764;9.172;2022-07-24T08:56:55;9.50;;;8.80;;
757;SDS011;363;48.764;9.172;2022-07-24T08:59:22;11.13;;;10.27;;
757;SDS011;363;48.764;9.172;2022-07-24T09:01:49;9.40;;;8.77;;
757;SDS011;363;48.764;9.172;2022-07-24T09:04:30;9.77;;;9.07;;
757;SDS011;363;48.764;9.172;2022-07-24T09:07:11;9.57;;;8.93;;
757;SDS011;363;48.764;9.172;2022-07-24T09:09:38;10.50;;;9.43;;
757;SDS011;363;48.764;9.172;2022-07-24T09:12:05;9.53;;;8.90;;
757;SDS011;363;48.764;9.172;2022-07-24T09:14:39;10.00;;;9.27;;
757;SDS011;363;48.764;9.172;2022-07-24T09:17:13;11.83;;;9.53;;
757;SDS011;363;48.764;9.172;2022-07-24T09:19:48;9.53;;;8.80;;
757;SDS011;363;48.764;9.172;2022-07-24T09:27:38;9.67;;;9.07;;
757;SDS011;363;48.764;9.172;2022-07-24T09:30:06;10.27;;;9.33;;
757;SDS011;363;48.764;9.172;2022-07-24T09:32:33;8.40;;;7.90;;
757;SDS011;363;48.764;9.172;2022-07-24T09:34:59;10.03;;;9.33;;
757;SDS011;363;48.764;9.172;2022-07-24T09:37:26;10.40;;;9.63;;
757;SDS011;363;48.764;9.172;2022-07-24T09:39:52;9.13;;;8.43;;
757;SDS011;363;48.764;9.172;2022-07-24T09:42:29;8.67;;;8.10;;
757;SDS011;363;48.764;9.172;2022-07-24T09:44:58;9.70;;;9.03;;
757;SDS011;363;48.764;9.172;2022-07-24T09:47:24;9.93;;;9.13;;
757;SDS011;363;48.764;9.172;2022-07-24T09:49:50;10.10;;;9.27;;
757;SDS011;363;48.764;9.172;2022-07-24T09:52:18;9.97;;;9.23;;
757;SDS011;363;48.764;9.172;2022-07-24T09:54:45;9.40;;;8.70;;
757;SDS011;363;48.764;9.172;2022-07-24T09:57:23;10.40;;;9.50;;
757;SDS011;363;48.764;9.172;2022-07-24T09:59:59;8.90;;;8.20;;
757;SDS011;363;48.764;9.172;2022-07-24T10:02:35;9.67;;;8.87;;
757;SDS011;363;48.764;9.172;2022-07-24T10:05:02;10.23;;;9.43;;
757;SDS011;363;48.764;9.172;2022-07-24T10:07:30;8.83;;;8.13;;
757;SDS011;363;48.764;9.172;2022-07-24T10:09:56;9.10;;;8.40;;
757;SDS011;363;48.764;9.172;2022-07-24T10:12:24;8.90;;;8.20;;
757;SDS011;363;48.764;9.172;2022-07-24T10:14:55;9.20;;;8.40;;
757;SDS011;363;48.764;9.172;2022-07-24T10:17:22;9.20;;;8.50;;
757;SDS011;363;48.764;9.172;2022-07-24T10:20:03;9.60;;;8.90;;
757;SDS011;363;48.764;9.172;2022-07-24T10:22:30;8.40;;;7.60;;
757;SDS011;363;48.764;9.172;2022-07-24T10:25:07;9.77;;;9.07;;
757;SDS011;363;48.764;9.172;2022-07-24T10:27:35;9.80;;;9.00;;
757;SDS011;363;48.764;9.172;2022-07-24T10:30:03;8.43;;;7.57;;
757;SDS011;363;48.764;9.172;2022-07-24T10:32:34;9.73;;;8.83;;
757;SDS011;363;48.764;9.172;2022-07-24T10:35:05;8.80;;;8.10;;
757;SDS011;363;48.764;9.172;2022-07-24T10:43:19;10.10;;;9.30;;
757;SDS011;363;48.764;9.172;2022-07-24T10:53:24;9.50;;;8.80;;
757;SDS011;363;48.764;9.172;2022-07-24T10:55:51;9.10;;;8.33;;
757;SDS011;363;48.764;9.172;2022-07-24T10:58:20;9.30;;;8.70;;
757;SDS011;363;48.764;9.172;2022-07-24T11:00:50;8.67;;;8.00;;
757;SDS011;363;48.764;9.172;2022-07-24T11:03:22;9.00;;;8.40;;
757;SDS011;363;48.764;9.172;2022-07-24T11:09:08;8.27;;;7.77;;
757;SDS011;363;48.764;9.172;2022-07-24T11:11:39;9.90;;;8.50;;
757;SDS011;363;48.764;9.172;2022-07-24T11:14:26;9.10;;;8.40;;
757;SDS011;363;48.764;9.172;2022-07-24T11:17:35;9.37;;;8.50;;
757;SDS011;363;48.764;9.172;2022-07-24T11:20:01;9.60;;;9.00;;
757;SDS011;363;48.764;9.172;2022-07-24T11:22:37;9.97;;;9.27;;
757;SDS011;363;48.764;9.172;2022-07-24T11:25:26;9.47;;;8.57;;
757;SDS011;363;48.764;9.172;2022-07-24T11:30:21;8.80;;;8.20;;
757;SDS011;363;48.764;9.172;2022-07-24T11:32:48;9.70;;;9.07;;
757;SDS011;363;48.764;9.172;2022-07-24T11:35:14;10.20;;;9.20;;
757;SDS011;363;48.764;9.172;2022-07-24T11:37:42;9.93;;;9.27;;
757;SDS011;363;48.764;9.172;2022-07-24T11:40:09;9.33;;;8.70;;
757;SDS011;363;48.764;9.172;2022-07-24T11:42:39;9.63;;;9.00;;
757;SDS011;363;48.764;9.172;2022-07-24T11:45:05;9.90;;;9.10;;
757;SDS011;363;48.764;9.172;2022-07-24T11:47:31;10.00;;;9.20;;
757;SDS011;363;48.764;9.172;2022-07-24T11:50:00;9.43;;;8.63;;
757;SDS011;363;48.764;9.172;2022-07-24T11:52:33;10.07;;;9.40;;
757;SDS011;363;48.764;9.172;2022-07-24T11:55:01;9.57;;;8.90;;
757;SDS011;363;48.764;9.172;2022-07-24T11:57:39;9.30;;;8.60;;
757;SDS011;363;48.764;9.172;2022-07-24T12:00:06;9.73;;;9.00;;
757;SDS011;363;48.764;9.172;2022-07-24T12:02:36;9.00;;;8.40;;
757;SDS011;363;48.764;9.172;2022-07-24T12:05:02;9.27;;;8.67;;
757;SDS011;363;48.764;9.172;2022-07-24T12:07:28;9.13;;;8.43;;
757;SDS011;363;48.764;9.172;2022-07-24T12:09:55;11.20;;;10.40;;
757;SDS011;363;48.764;9.172;2022-07-24T12:14:53;9.67;;;8.87;;
757;SDS011;363;48.764;9.172;2022-07-24T12:17:31;9.10;;;8.40;;
757;SDS011;363;48.764;9.172;2022-07-24T12:19:58;9.97;;;9.27;;
757;SDS011;363;48.764;9.172;2022-07-24T12:22:26;10.40;;;9.70;;
757;SDS011;363;48.764;9.172;2022-07-24T12:24:53;9.10;;;8.30;;
757;SDS011;363;48.764;9.172;2022-07-24T12:27:33;9.37;;;8.67;;
757;SDS011;363;48.764;9.172;2022-07-24T12:30:14;10.60;;;9.80;;
757;SDS011;363;48.764;9.172;2022-07-24T12:33:31;8.97;;;8.37;;
757;SDS011;363;48.764;9.172;2022-07-24T12:38:32;9.60;;;8.80;;
757;SDS011;363;48.764;9.172;2022-07-24T12:46:14;9.03;;;8.23;;
757;SDS011;363;48.764;9.172;2022-07-24T12:48:40;8.80;;;8.20;;
757;SDS011;363;48.764;9.172;2022-07-24T12:51:49;8.70;;;8.10;;
757;SDS011;363;48.764;9.172;2022-07-24T12:54:25;7.97;;;7.37;;
757;SDS011;363;48.764;9.172;2022-07-24T12:56:54;9.77;;;9.07;;
757;SDS011;363;48.764;9.172;2022-07-24T13:01:52;9.07;;;8.47;;
757;SDS011;363;48.764;9.172;2022-07-24T13:04:21;9.23;;;8.60;;
757;SDS011;363;48.764;9.172;2022-07-24T13:06:49;9.50;;;8.83;;
757;SDS011;363;48.764;9.172;2022-07-24T13:09:17;7.93;;;7.43;;
757;SDS011;363;48.764;9.172;2022-07-24T13:11:44;9.17;;;8.50;;
757;SDS011;363;48.764;9.172;2022-07-24T13:14:12;9.50;;;8.80;;
757;SDS011;363;48.764;9.172;2022-07-24T13:16:40;10.20;;;9.20;;
757;SDS011;363;48.764;9.172;2022-07-24T13:19:07;10.40;;;9.50;;
757;SDS011;363;48.764;9.172;2022-07-24T13:21:35;8.83;;;8.17;;
757;SDS011;363;48.764;9.172;2022-07-24T13:24:02;9.87;;;9.13;;
757;SDS011;363;48.764;9.172;2022-07-24T13:26:29;9.40;;;8.70;;
757;SDS011;363;48.764;9.172;2022-07-24T13:28:55;10.47;;;9.67;;
757;SDS011;363;48.764;9.172;2022-07-24T13:31:20;9.40;;;8.70;;
757;SDS011;363;48.764;9.172;2022-07-24T13:33:46;9.97;;;9.07;;
757;SDS011;363;48.764;9.172;2022-07-24T13:36:13;9.03;;;8.33;;
757;SDS011;363;48.764;9.172;2022-07-24T13:38:39;9.53;;;8.83;;
757;SDS011;363;48.764;9.172;2022-07-24T13:41:05;8.93;;;8.13;;
757;SDS011;363;48.764;9.172;2022-07-24T13:43:31;9.27;;;8.37;;
757;SDS011;363;48.764;9.172;2022-07-24T13:45:56;9.40;;;8.70;;
757;SDS011;363;48.764;9.172;2022-07-24T13:48:22;8.97;;;8.33;;
757;SDS011;363;48.764;9.172;2022-07-24T13:50:48;9.53;;;8.73;;
757;SDS011;363;48.764;9.172;2022-07-24T13:53:14;9.20;;;8.50;;
757;SDS011;363;48.764;9.172;2022-07-24T13:55:39;9.80;;;9.10;;
757;SDS011;363;48.764;9.172;2022-07-24T13:58:05;9.23;;;8.60;;
757;SDS011;363;48.764;9.172;2022-07-24T14:00:31;9.80;;;9.10;;
757;SDS011;363;48.764;9.172;2022-07-24T14:02:56;8.60;;;8.10;;
757;SDS011;363;48.764;9.172;2022-07-24T14:05:22;10.10;;;9.40;;
757;SDS011;363;48.764;9.172;2022-07-24T14:07:48;8.77;;;8.17;;
757;SDS011;363;48.764;9.172;2022-07-24T14:10:14;9.70;;;9.00;;
757;SDS011;363;48.764;9.172;2022-07-24T14:12:40;9.10;;;8.40;;
757;SDS011;363;48.764;9.172;2022-07-24T14:15:06;9.20;;;8.50;;
757;SDS011;363;48.764;9.172;2022-07-24T14:17:33;8.97;;;8.23;;
757;SDS011;363;48.764;9.172;2022-07-24T14:20:00;8.93;;;8.23;;
757;SDS011;363;48.764;9.172;2022-07-24T14:22:25;8.43;;;7.83;;
757;SDS011;363;48.764;9.172;2022-07-24T14:24:51;8.90;;;8.20;;
757;SDS011;363;48.764;9.172;2022-07-24T14:27:17;9.30;;;8.67;;
757;SDS011;363;48.764;9.172;2022-07-24T14:29:42;8.73;;;8.23;;
757;SDS011;363;48.764;9.172;2022-07-24T14:32:08;9.10;;;8.40;;
757;SDS011;363;48.764;9.172;2022-07-24T14:34:34;9.80;;;8.90;;
757;SDS011;363;48.764;9.172;2022-07-24T14:36:59;9.57;;;8.87;;
757;SDS011;363;48.764;9.172;2022-07-24T14:39:25;9.33;;;8.70;;
757;SDS011;363;48.764;9.172;2022-07-24T14:41:52;8.63;;;8.00;;
757;SDS011;363;48.764;9.172;2022-07-24T14:44:18;8.80;;;8.10;;
757;SDS011;363;48.764;9.172;2022-07-24T14:46:44;8.30;;;7.70;;
757;SDS011;363;48.764;9.172;2022-07-24T14:49:09;8.70;;;8.10;;
757;SDS011;363;48.764;9.172;2022-07-24T14:51:35;9.10;;;8.33;;
757;SDS011;363;48.764;9.172;2022-07-24T14:54:01;9.37;;;8.67;;
757;SDS011;363;48.764;9.172;2022-07-24T14:56:27;9.37;;;8.70;;
757;SDS011;363;48.764;9.172;2022-07-24T14:58:53;8.93;;;8.33;;
757;SDS011;363;48.764;9.172;2022-07-24T15:01:19;9.27;;;8.60;;
757;SDS011;363;48.764;9.172;2022-07-24T15:03:45;8.77;;;8.07;;
757;SDS011;363;48.764;9.172;2022-07-24T15:06:10;10.03;;;9.23;;
757;SDS011;363;48.764;9.172;2022-07-24T15:08:36;9.80;;;8.90;;
757;SDS011;363;48.764;9.172;2022-07-24T15:11:01;10.70;;;9.83;;
757;SDS011;363;48.764;9.172;2022-07-24T15:13:27;9.20;;;8.30;;
757;SDS011;363;48.764;9.172;2022-07-24T15:15:52;9.73;;;9.03;;
757;SDS011;363;48.764;9.172;2022-07-24T15:18:19;10.17;;;9.37;;
757;SDS011;363;48.764;9.172;2022-07-24T15:20:44;9.57;;;8.87;;
757;SDS011;363;48.764;9.172;2022-07-24T15:23:10;9.97;;;9.17;;
757;SDS011;363;48.764;9.172;2022-07-24T15:25:36;9.60;;;8.90;;
757;SDS011;363;48.764;9.172;2022-07-24T15:28:01;8.23;;;7.53;;
757;SDS011;363;48.764;9.172;2022-07-24T15:30:27;9.87;;;9.17;;
757;SDS011;363;48.764;9.172;2022-07-24T15:32:53;10.23;;;9.33;;
757;SDS011;363;48.764;9.172;2022-07-24T15:35:18;10.17;;;9.37;;
757;SDS011;363;48.764;9.172;2022-07-24T15:37:44;11.40;;;10.30;;
757;SDS011;363;48.764;9.172;2022-07-24T15:40:10;9.20;;;8.47;;
757;SDS011;363;48.764;9.172;2022-07-24T15:42:36;10.10;;;9.30;;
757;SDS011;363;48.764;9.172;2022-07-24T15:45:01;9.33;;;8.53;;
757;SDS011;363;48.764;9.172;2022-07-24T15:47:27;8.43;;;7.80;;
757;SDS011;363;48.764;9.172;2022-07-24T15:49:53;9.20;;;8.20;;
757;SDS011;363;48.764;9.172;2022-07-24T15:52:18;10.27;;;9.37;;
757;SDS011;363;48.764;9.172;2022-07-24T15:54:44;8.60;;;7.90;;
757;SDS011;363;48.764;9.172;2022-07-24T15:57:10;8.40;;;7.80;;
757;SDS011;363;48.764;9.172;2022-07-24T15:59:35;9.40;;;8.60;;
757;SDS011;363;48.764;9.172;2022-07-24T16:02:01;8.70;;;8.10;;
757;SDS011;363;48.764;9.172;2022-07-24T16:04:26;9.00;;;8.40;;